createdAt,value
2018-11-25T00:00:36.440Z,7.77
2018-11-25T00:03:10.591Z,6.03
2018-11-25T00:05:45.930Z,7.27
2018-11-25T00:08:20.450Z,9.40
2018-11-25T00:10:55.465Z,6.80
2018-11-25T00:13:29.328Z,6.10
2018-11-25T00:16:03.704Z,7.47
2018-11-25T00:18:38.186Z,6.17
2018-11-25T00:21:11.624Z,7.53
2018-11-25T00:23:46.057Z,9.47
2018-11-25T00:26:19.353Z,8.07
2018-11-25T00:28:55.034Z,9.80
2018-11-25T00:31:29.524Z,8.30
2018-11-25T00:34:02.945Z,9.50
2018-11-25T00:36:36.623Z,7.90
2018-11-25T00:39:11.726Z,6.67
2018-11-25T00:41:45.755Z,12.33
2018-11-25T00:44:20.008Z,6.40
2018-11-25T00:46:53.979Z,8.83
2018-11-25T00:49:27.649Z,8.60
2018-11-25T00:52:03.223Z,6.23
2018-11-25T00:54:36.901Z,7.73
2018-11-25T00:57:10.081Z,6.67
2018-11-25T00:59:44.941Z,6.53
2018-11-25T01:02:17.686Z,6.63
2018-11-25T01:04:51.288Z,9.10
2018-11-25T01:07:28.634Z,5.87
2018-11-25T01:10:04.744Z,9.57
2018-11-25T01:12:39.058Z,7.53
2018-11-25T01:15:16.760Z,6.23
2018-11-25T01:17:51.352Z,9.47
2018-11-25T01:20:27.462Z,8.13
2018-11-25T01:23:00.536Z,9.47
2018-11-25T01:25:33.857Z,8.00
2018-11-25T01:28:07.955Z,7.97
2018-11-25T01:30:41.816Z,7.43
2018-11-25T01:33:16.630Z,6.97
2018-11-25T01:35:50.294Z,7.97
2018-11-25T01:38:23.703Z,7.23
2018-11-25T01:40:59.499Z,10.90
2018-11-25T01:43:32.816Z,9.10
2018-11-25T01:46:06.157Z,7.37
2018-11-25T01:48:39.651Z,7.97
2018-11-25T01:51:13.056Z,10.13
2018-11-25T01:53:46.652Z,8.57
2018-11-25T01:56:20.261Z,6.90
2018-11-25T01:58:53.852Z,8.20
2018-11-25T02:01:29.083Z,6.87
2018-11-25T02:04:02.399Z,7.23
2018-11-25T02:06:36.212Z,8.63
2018-11-25T02:09:11.345Z,8.83
2018-11-25T02:11:45.254Z,9.67
2018-11-25T02:14:18.662Z,8.57
2018-11-25T02:16:52.906Z,9.77
2018-11-25T02:19:26.562Z,8.87
2018-11-25T02:22:01.352Z,10.33
2018-11-25T02:24:34.632Z,9.20
2018-11-25T02:27:08.607Z,10.93
2018-11-25T02:29:41.960Z,7.87
2018-11-25T02:32:15.432Z,8.43
2018-11-25T02:34:50.237Z,7.80
2018-11-25T02:37:25.983Z,8.47
2018-11-25T02:40:00.872Z,10.30
2018-11-25T02:42:36.717Z,8.07
2018-11-25T02:45:13.243Z,9.40
2018-11-25T02:47:47.334Z,10.53
2018-11-25T02:50:29.937Z,10.33
2018-11-25T02:53:04.600Z,7.90
2018-11-25T02:55:38.110Z,7.90
2018-11-25T02:58:11.797Z,10.50
2018-11-25T03:00:47.069Z,9.60
2018-11-25T03:03:21.252Z,7.57
2018-11-25T03:05:54.574Z,9.90
2018-11-25T03:08:28.595Z,9.00
2018-11-25T03:11:03.227Z,8.27
2018-11-25T03:13:39.004Z,7.10
2018-11-25T03:16:12.361Z,9.43
2018-11-25T03:18:46.800Z,6.60
2018-11-25T03:21:19.957Z,8.03
2018-11-25T03:23:54.175Z,8.70
2018-11-25T03:26:31.905Z,6.97
2018-11-25T03:29:05.647Z,9.17
2018-11-25T03:31:39.824Z,8.60
2018-11-25T03:34:14.638Z,6.87
2018-11-25T03:36:49.925Z,6.23
2018-11-25T03:39:25.256Z,8.87
2018-11-25T03:41:59.325Z,6.63
2018-11-25T03:44:34.490Z,6.13
2018-11-25T03:47:08.593Z,8.73
2018-11-25T03:49:41.808Z,7.37
2018-11-25T03:52:15.457Z,6.47
2018-11-25T03:54:55.538Z,7.37
2018-11-25T03:57:32.567Z,5.73
2018-11-25T04:00:07.140Z,7.80
2018-11-25T04:02:40.405Z,7.50
2018-11-25T04:05:15.100Z,7.77
2018-11-25T04:07:48.204Z,7.53
2018-11-25T04:10:21.945Z,10.73
2018-11-25T04:12:59.014Z,6.60
2018-11-25T04:15:33.286Z,9.53
2018-11-25T04:18:06.507Z,9.73
2018-11-25T04:20:39.885Z,7.83
2018-11-25T04:23:14.563Z,6.77
2018-11-25T04:25:48.509Z,8.53
2018-11-25T04:28:21.755Z,6.67
2018-11-25T04:30:54.658Z,6.70
2018-11-25T04:33:28.849Z,7.17
2018-11-25T04:36:01.853Z,9.20
2018-11-25T04:38:40.346Z,6.43
2018-11-25T04:41:14.140Z,7.37
2018-11-25T04:43:48.571Z,7.53
2018-11-25T04:46:22.150Z,7.23
2018-11-25T04:48:55.253Z,9.90
2018-11-25T04:51:29.389Z,9.10
2018-11-25T04:54:03.209Z,7.80
2018-11-25T04:56:36.674Z,9.80
2018-11-25T04:59:10.596Z,9.53
2018-11-25T05:01:43.708Z,7.00
2018-11-25T05:04:18.044Z,8.13
2018-11-25T05:06:52.652Z,8.80
2018-11-25T05:09:28.423Z,8.60
2018-11-25T05:12:01.744Z,7.40
2018-11-25T05:14:36.133Z,6.77
2018-11-25T05:17:09.630Z,7.97
2018-11-25T05:19:43.040Z,7.30
2018-11-25T05:22:17.040Z,8.47
2018-11-25T05:24:50.665Z,9.30
2018-11-25T05:27:24.341Z,7.63
2018-11-25T05:29:58.034Z,6.67
2018-11-25T05:32:31.593Z,7.13
2018-11-25T05:35:04.892Z,9.60
2018-11-25T05:37:40.068Z,6.47
2018-11-25T05:40:14.615Z,9.27
2018-11-25T05:42:50.276Z,6.93
2018-11-25T05:45:25.794Z,6.33
2018-11-25T05:47:59.861Z,6.10
2018-11-25T05:50:33.177Z,7.03
2018-11-25T05:53:06.701Z,7.27
2018-11-25T05:55:40.491Z,6.63
2018-11-25T05:58:14.289Z,7.37
2018-11-25T06:00:48.701Z,5.37
2018-11-25T06:03:25.972Z,6.10
2018-11-25T06:05:59.192Z,5.87
2018-11-25T06:08:32.683Z,6.40
2018-11-25T06:11:05.864Z,5.77
2018-11-25T06:13:46.396Z,5.63
2018-11-25T06:16:21.431Z,8.13
2018-11-25T06:18:54.706Z,6.67
2018-11-25T06:21:27.629Z,5.07
2018-11-25T06:24:02.600Z,6.40
2018-11-25T06:26:37.416Z,6.17
2018-11-25T06:29:11.509Z,4.90
2018-11-25T06:31:44.865Z,7.30
2018-11-25T06:34:20.221Z,7.60
2018-11-25T06:36:53.648Z,6.80
2018-11-25T06:39:27.690Z,6.90
2018-11-25T06:42:01.807Z,6.77
2018-11-25T06:44:34.805Z,6.07
2018-11-25T06:47:09.811Z,6.17
2018-11-25T06:49:45.064Z,8.40
2018-11-25T06:52:19.442Z,8.37
2018-11-25T06:54:54.433Z,11.00
2018-11-25T06:57:30.183Z,6.93
2018-11-25T07:00:04.036Z,5.60
2018-11-25T07:02:37.200Z,6.63
2018-11-25T07:05:12.160Z,7.73
2018-11-25T07:07:46.019Z,7.70
2018-11-25T07:10:23.117Z,7.77
2018-11-25T07:12:57.448Z,7.27
2018-11-25T07:15:31.376Z,6.53
2018-11-25T07:18:05.676Z,6.07
2018-11-25T07:20:38.844Z,6.03
2018-11-25T07:23:12.522Z,5.70
2018-11-25T07:25:46.307Z,4.63
2018-11-25T07:28:19.454Z,4.13
2018-11-25T07:30:53.084Z,6.53
2018-11-25T07:33:26.639Z,6.97
2018-11-25T07:36:00.102Z,5.77
2018-11-25T07:38:33.347Z,4.90
2018-11-25T07:41:06.302Z,5.77
2018-11-25T07:43:40.122Z,4.83
2018-11-25T07:46:14.349Z,4.57
2018-11-25T07:48:48.270Z,5.40
2018-11-25T07:51:21.434Z,5.33
2018-11-25T07:53:55.063Z,5.13
2018-11-25T07:56:28.252Z,6.30
2018-11-25T07:59:01.449Z,4.17
2018-11-25T08:01:36.157Z,5.13
2018-11-25T08:04:09.356Z,5.70
2018-11-25T08:06:42.625Z,5.90
2018-11-25T08:09:15.613Z,3.87
2018-11-25T08:11:49.803Z,5.30
2018-11-25T08:14:23.012Z,3.67
2018-11-25T08:16:57.333Z,2.67
2018-11-25T08:19:31.378Z,5.00
2018-11-25T08:22:04.867Z,4.10
2018-11-25T08:24:38.302Z,2.87
2018-11-25T08:27:11.563Z,4.80
2018-11-25T08:29:45.488Z,6.80
2018-11-25T08:32:19.513Z,3.13
2018-11-25T08:34:53.700Z,4.10
2018-11-25T08:37:28.878Z,3.50
2018-11-25T08:40:02.442Z,4.00
2018-11-25T08:42:36.590Z,4.70
2018-11-25T08:45:11.503Z,3.67
2018-11-25T08:47:45.622Z,3.60
2018-11-25T08:50:20.136Z,4.30
2018-11-25T08:52:54.824Z,4.37
2018-11-25T08:55:28.531Z,3.63
2018-11-25T08:58:01.517Z,3.40
2018-11-25T09:00:34.578Z,2.70
2018-11-25T09:03:08.013Z,3.83
2018-11-25T09:05:41.340Z,4.07
2018-11-25T09:08:14.616Z,2.93
2018-11-25T09:10:49.229Z,3.87
2018-11-25T09:13:21.716Z,3.13
2018-11-25T09:15:54.776Z,5.00
2018-11-25T09:18:29.311Z,3.27
2018-11-25T09:21:02.268Z,4.50
2018-11-25T09:23:35.283Z,4.67
2018-11-25T09:26:08.387Z,2.77
2018-11-25T09:28:41.793Z,4.40
2018-11-25T09:31:15.025Z,7.70
2018-11-25T09:33:48.362Z,2.47
2018-11-25T09:36:21.337Z,4.23
2018-11-25T09:38:54.754Z,5.07
2018-11-25T09:41:28.146Z,3.23
2018-11-25T09:44:01.430Z,4.87
2018-11-25T09:46:34.620Z,3.53
2018-11-25T09:49:08.201Z,4.67
2018-11-25T09:51:41.015Z,3.43
2018-11-25T09:54:14.323Z,5.47
2018-11-25T09:56:48.105Z,3.80
2018-11-25T09:59:21.203Z,3.33
2018-11-25T10:01:54.303Z,3.07
2018-11-25T10:04:29.001Z,5.63
2018-11-25T10:07:02.258Z,4.30
2018-11-25T10:09:34.915Z,4.13
2018-11-25T10:12:08.043Z,5.73
2018-11-25T10:14:41.053Z,3.13
2018-11-25T10:17:14.021Z,3.33
2018-11-25T10:19:47.519Z,3.57
2018-11-25T10:22:20.613Z,3.47
2018-11-25T10:24:53.689Z,6.50
2018-11-25T10:27:27.814Z,3.10
2018-11-25T10:30:00.859Z,3.43
2018-11-25T10:32:33.852Z,4.17
2018-11-25T10:35:07.225Z,3.77
2018-11-25T10:37:40.316Z,3.50
2018-11-25T10:40:21.069Z,4.70
2018-11-25T10:42:54.400Z,4.23
2018-11-25T10:45:28.174Z,5.33
2018-11-25T10:48:01.405Z,3.47
2018-11-25T10:50:34.892Z,5.13
2018-11-25T10:53:08.149Z,4.00
2018-11-25T10:55:41.351Z,4.30
2018-11-25T10:58:15.007Z,6.00
2018-11-25T11:00:54.866Z,4.57
2018-11-25T11:03:34.611Z,4.47
2018-11-25T11:06:13.027Z,4.93
2018-11-25T11:08:48.367Z,4.83
2018-11-25T11:11:21.395Z,3.77
2018-11-25T11:13:54.502Z,2.47
2018-11-25T11:16:28.110Z,3.83
2018-11-25T11:19:01.469Z,3.23
2018-11-25T11:21:35.960Z,9.40
2018-11-25T11:24:09.368Z,4.97
2018-11-25T11:26:42.584Z,3.63
2018-11-25T11:29:15.391Z,5.43
2018-11-25T11:31:49.076Z,3.67
2018-11-25T11:34:21.773Z,4.63
2018-11-25T11:36:55.015Z,5.27
2018-11-25T11:39:28.891Z,3.90
2018-11-25T11:42:02.079Z,4.53
2018-11-25T11:44:35.039Z,4.73
2018-11-25T11:47:07.825Z,7.80
2018-11-25T11:49:41.166Z,5.17
2018-11-25T11:52:14.203Z,4.60
2018-11-25T11:54:48.932Z,4.60
2018-11-25T11:57:21.978Z,5.20
2018-11-25T11:59:55.301Z,6.97
2018-11-25T12:02:31.594Z,6.47
2018-11-25T12:05:06.067Z,6.00
2018-11-25T12:07:39.253Z,7.30
2018-11-25T12:10:14.480Z,10.13
2018-11-25T12:12:49.249Z,6.10
2018-11-25T12:15:30.697Z,7.03
2018-11-25T12:18:02.044Z,5.93
2018-11-25T12:20:35.647Z,8.47
2018-11-25T12:23:09.807Z,5.47
2018-11-25T12:25:42.904Z,4.07
2018-11-25T12:28:16.307Z,4.93
2018-11-25T12:30:49.643Z,5.20
2018-11-25T12:33:22.740Z,4.27
2018-11-25T12:35:55.923Z,5.00
2018-11-25T12:38:30.965Z,5.77
2018-11-25T12:41:04.339Z,6.73
2018-11-25T12:43:37.076Z,4.87
2018-11-25T12:46:10.743Z,4.47
2018-11-25T12:48:43.716Z,5.23
2018-11-25T12:51:16.851Z,4.20
2018-11-25T12:53:50.995Z,11.53
2018-11-25T12:56:25.113Z,5.00
2018-11-25T12:58:58.185Z,5.40
2018-11-25T13:01:31.406Z,6.20
2018-11-25T13:04:04.693Z,6.37
2018-11-25T13:06:37.601Z,5.13
2018-11-25T13:09:11.320Z,5.53
2018-11-25T13:11:44.568Z,5.03
2018-11-25T13:14:18.220Z,6.50
2018-11-25T13:16:51.473Z,4.07
2018-11-25T13:19:25.293Z,4.47
2018-11-25T13:21:58.325Z,3.97
2018-11-25T13:24:32.459Z,3.50
2018-11-25T13:27:05.696Z,2.73
2018-11-25T13:29:39.391Z,4.43
2018-11-25T13:32:12.564Z,3.97
2018-11-25T13:34:45.620Z,3.20
2018-11-25T13:37:19.589Z,2.80
2018-11-25T13:39:52.818Z,2.93
2018-11-25T13:42:27.183Z,2.40
2018-11-25T13:44:57.372Z,2.73
2018-11-25T13:47:30.867Z,4.67
2018-11-25T13:50:03.997Z,4.07
2018-11-25T13:52:37.251Z,3.43
2018-11-25T13:55:22.104Z,2.80
2018-11-25T13:57:55.291Z,2.63
2018-11-25T14:00:42.642Z,4.70
2018-11-25T14:03:18.028Z,3.03
2018-11-25T14:05:53.320Z,3.00
2018-11-25T14:08:25.521Z,2.67
2018-11-25T14:11:03.914Z,3.10
2018-11-25T14:13:36.611Z,2.73
2018-11-25T14:16:11.275Z,3.37
2018-11-25T14:18:44.437Z,3.47
2018-11-25T14:21:18.017Z,3.63
2018-11-25T14:23:51.117Z,2.73
2018-11-25T14:26:27.509Z,2.70
2018-11-25T14:29:00.802Z,2.67
2018-11-25T14:31:34.625Z,3.40
2018-11-25T14:34:08.428Z,3.97
2018-11-25T14:36:41.833Z,2.67
2018-11-25T14:39:16.148Z,2.87
2018-11-25T14:41:50.364Z,2.17
2018-11-25T14:44:24.176Z,2.37
2018-11-25T14:46:57.203Z,4.10
2018-11-25T14:49:30.436Z,2.60
2018-11-25T14:52:03.659Z,2.83
2018-11-25T14:54:36.764Z,2.80
2018-11-25T14:57:09.966Z,2.30
2018-11-25T14:59:44.000Z,4.23
2018-11-25T15:02:17.312Z,3.37
2018-11-25T15:04:50.710Z,2.17
2018-11-25T15:07:24.582Z,3.93
2018-11-25T15:09:57.791Z,4.33
2018-11-25T15:19:19.932Z,4.17
2018-11-25T15:21:53.305Z,2.50
2018-11-25T15:24:27.892Z,1.77
2018-11-25T15:27:01.002Z,4.73
2018-11-25T15:29:34.167Z,2.20
2018-11-25T15:32:07.613Z,2.30
2018-11-25T15:34:40.864Z,2.27
2018-11-25T15:37:14.087Z,3.70
2018-11-25T15:39:48.176Z,2.77
2018-11-25T15:42:21.360Z,2.60
2018-11-25T15:44:55.756Z,3.00
2018-11-25T15:47:29.113Z,2.00
2018-11-25T15:50:02.601Z,4.10
2018-11-25T15:52:35.748Z,2.23
2018-11-25T15:55:11.433Z,2.80
2018-11-25T15:57:44.609Z,2.20
2018-11-25T16:00:19.168Z,3.70
2018-11-25T16:02:53.057Z,2.17
2018-11-25T16:05:30.503Z,2.60
2018-11-25T16:08:04.471Z,2.33
2018-11-25T16:10:37.130Z,3.47
2018-11-25T16:13:10.740Z,2.87
2018-11-25T16:15:45.194Z,2.60
2018-11-25T16:18:22.000Z,2.57
2018-11-25T16:20:55.959Z,2.20
2018-11-25T16:23:30.491Z,1.93
2018-11-25T16:26:06.424Z,4.03
2018-11-25T16:28:41.823Z,2.57
2018-11-25T16:31:14.834Z,3.03
2018-11-25T16:33:48.961Z,2.77
2018-11-25T16:43:11.602Z,4.60
2018-11-25T16:45:45.584Z,3.03
2018-11-25T16:48:20.404Z,4.20
2018-11-25T16:50:55.590Z,5.60
2018-11-25T16:53:30.482Z,4.07
2018-11-25T16:56:03.649Z,5.87
2018-11-25T16:58:36.763Z,3.20
2018-11-25T17:01:10.495Z,2.97
2018-11-25T17:03:44.317Z,3.50
2018-11-25T17:06:19.174Z,3.20
2018-11-25T17:08:52.560Z,5.10
2018-11-25T17:11:26.537Z,2.33
2018-11-25T17:14:00.632Z,2.63
2018-11-25T17:16:33.732Z,1.70
2018-11-25T17:19:06.644Z,1.67
2018-11-25T17:21:40.646Z,3.30
2018-11-25T17:24:14.111Z,2.13
2018-11-25T17:26:48.790Z,1.87
2018-11-25T17:29:22.847Z,2.17
2018-11-25T17:31:57.271Z,1.57
2018-11-25T17:34:31.609Z,2.37
2018-11-25T17:37:04.894Z,1.73
2018-11-25T17:39:38.181Z,2.03
2018-11-25T17:42:11.209Z,1.70
2018-11-25T17:44:45.286Z,1.63
2018-11-25T17:47:18.453Z,1.67
2018-11-25T17:49:52.208Z,1.37
2018-11-25T17:52:26.401Z,2.13
2018-11-25T17:55:00.279Z,1.57
2018-11-25T17:57:33.817Z,1.03
2018-11-25T18:00:08.504Z,1.00
2018-11-25T18:02:41.613Z,0.97
2018-11-25T18:05:17.116Z,1.00
2018-11-25T18:07:50.251Z,1.13
2018-11-25T18:10:24.210Z,2.63
2018-11-25T18:12:59.206Z,1.80
2018-11-25T18:15:32.699Z,1.63
2018-11-25T18:18:07.870Z,1.33
2018-11-25T18:20:52.078Z,1.10
2018-11-25T18:23:25.570Z,1.40
2018-11-25T18:25:59.035Z,2.53
2018-11-25T18:28:32.611Z,1.80
2018-11-25T18:31:05.996Z,2.60
2018-11-25T18:33:39.679Z,2.67
2018-11-25T18:36:14.810Z,1.70
2018-11-25T18:38:48.984Z,1.17
2018-11-25T18:41:22.382Z,5.70
2018-11-25T18:43:56.343Z,4.23
2018-11-25T18:46:31.211Z,3.60
2018-11-25T18:49:05.707Z,2.00
2018-11-25T18:51:41.102Z,1.37
2018-11-25T18:54:14.206Z,2.77
2018-11-25T18:56:48.001Z,2.10
2018-11-25T18:59:22.457Z,1.10
2018-11-25T19:02:04.006Z,2.97
2018-11-25T19:04:38.706Z,2.00
2018-11-25T19:07:11.900Z,1.33
2018-11-25T19:09:45.477Z,1.67
2018-11-25T19:12:18.872Z,1.60
2018-11-25T19:14:52.332Z,1.10
2018-11-25T19:17:28.055Z,1.73
2018-11-25T19:20:01.496Z,2.63
2018-11-25T19:22:35.440Z,1.13
2018-11-25T19:25:08.853Z,1.50
2018-11-25T19:27:42.129Z,1.20
2018-11-25T19:30:16.389Z,3.10
2018-11-25T19:32:52.120Z,1.00
2018-11-25T19:35:27.162Z,1.57
2018-11-25T19:38:01.217Z,2.80
2018-11-25T19:40:34.652Z,2.47
2018-11-25T19:43:12.425Z,2.33
2018-11-25T19:45:51.272Z,2.60
2018-11-25T19:48:27.157Z,3.40
2018-11-25T19:51:03.059Z,3.13
2018-11-25T19:53:37.566Z,3.40
2018-11-25T19:56:12.517Z,3.97
2018-11-25T19:58:47.729Z,4.30
2018-11-25T20:01:21.546Z,2.13
2018-11-25T20:03:57.014Z,2.10
2018-11-25T20:06:37.051Z,4.07
2018-11-25T20:09:14.037Z,5.07
2018-11-25T20:11:48.388Z,4.60
2018-11-25T20:14:21.755Z,2.40
2018-11-25T20:16:59.532Z,3.17
2018-11-25T20:19:34.125Z,3.27
2018-11-25T20:22:11.439Z,2.67
2018-11-25T20:24:45.941Z,4.20
2018-11-25T20:27:23.772Z,3.00
2018-11-25T20:29:59.847Z,5.13
2018-11-25T20:32:39.445Z,2.93
2018-11-25T20:35:13.854Z,3.00
2018-11-25T20:37:53.811Z,3.07
2018-11-25T20:40:27.448Z,2.30
2018-11-25T20:43:00.613Z,2.80
2018-11-25T20:45:39.208Z,2.43
2018-11-25T20:48:12.390Z,2.17
2018-11-25T20:50:45.536Z,1.97
2018-11-25T20:53:23.015Z,1.80
2018-11-25T20:55:57.148Z,2.27
2018-11-25T20:58:31.290Z,2.00
2018-11-25T21:01:04.949Z,2.10
2018-11-25T21:03:39.823Z,2.30
2018-11-25T21:06:12.983Z,3.00
2018-11-25T21:08:47.064Z,3.27
2018-11-25T21:11:20.701Z,2.57
2018-11-25T21:13:55.981Z,4.37
2018-11-25T21:16:29.849Z,3.13
2018-11-25T21:19:02.994Z,4.97
2018-11-25T21:21:36.079Z,2.37
2018-11-25T21:24:09.333Z,2.83
2018-11-25T21:26:42.128Z,3.97
2018-11-25T21:29:16.754Z,4.93
2018-11-25T21:31:50.177Z,4.47
2018-11-25T21:34:23.551Z,3.60
2018-11-25T21:36:56.614Z,3.00
2018-11-25T21:39:29.672Z,2.77
2018-11-25T21:42:02.927Z,2.53
2018-11-25T21:44:36.469Z,4.77
2018-11-25T21:47:09.582Z,4.17
2018-11-25T21:49:43.120Z,4.83
2018-11-25T21:52:17.787Z,3.30
2018-11-25T21:54:51.316Z,4.50
2018-11-25T21:57:24.611Z,5.87
2018-11-25T21:59:57.724Z,3.37
2018-11-25T22:02:31.111Z,5.23
2018-11-25T22:05:04.301Z,3.07
2018-11-25T22:07:37.641Z,3.27
2018-11-25T22:10:13.123Z,3.53
2018-11-25T22:12:48.379Z,4.07
2018-11-25T22:15:24.449Z,2.80
2018-11-25T22:17:58.210Z,2.97
2018-11-25T22:20:32.880Z,3.27
2018-11-25T22:23:06.621Z,4.73
2018-11-25T22:25:39.694Z,4.03
2018-11-25T22:28:12.797Z,4.50
2018-11-25T22:30:46.765Z,3.13
2018-11-25T22:33:20.216Z,2.50
2018-11-25T22:35:53.701Z,3.10
2018-11-25T22:38:27.493Z,4.93
2018-11-25T22:41:02.118Z,3.27
2018-11-25T22:43:35.397Z,4.07
2018-11-25T22:46:08.753Z,3.57
2018-11-25T22:48:42.665Z,3.90
2018-11-25T22:51:16.556Z,3.20
2018-11-25T22:53:50.423Z,4.00
2018-11-25T22:56:23.346Z,4.67
2018-11-25T22:58:56.514Z,5.00
2018-11-25T23:01:29.769Z,3.90
2018-11-25T23:05:10.846Z,2.83
2018-11-25T23:07:45.202Z,3.00
2018-11-25T23:10:18.529Z,3.23
2018-11-25T23:12:51.621Z,3.93
2018-11-25T23:15:25.611Z,3.43
2018-11-25T23:17:58.589Z,4.47
2018-11-25T23:20:32.008Z,4.07
2018-11-25T23:23:05.659Z,5.53
2018-11-25T23:25:39.061Z,4.37
2018-11-25T23:28:12.382Z,4.47
2018-11-25T23:30:45.573Z,4.13
2018-11-25T23:33:18.816Z,4.77
2018-11-25T23:35:51.808Z,5.27
2018-11-25T23:38:25.430Z,8.07
2018-11-25T23:40:58.602Z,4.97
2018-11-25T23:43:31.740Z,6.07
2018-11-25T23:46:05.109Z,6.33
2018-11-25T23:48:38.659Z,7.53
2018-11-25T23:51:11.893Z,6.37
2018-11-25T23:53:45.551Z,7.40
2018-11-25T23:56:18.846Z,7.23
2018-11-25T23:58:52.105Z,5.37
